Time;durP1;ratioP1;P1;durP2;ratioP2;P2;SDS_P1;SDS_P2;PMS_P1;PMS_P2;Temp;Humidity;BMP_temperature;BMP_pressure;BME280_temperature;BME280_humidity;BME280_pressure;Samples;Min_cycle;Max_cycle;Signal;HPM_P1;HPM_P2
2021/04/06 00:02:21;;;;;;;2.17;1.43;;;1.00;99.90;;;;;;5076352;28;20635;-89
2021/04/06 00:04:50;;;;;;;3.53;1.90;;;1.00;99.90;;;;;;5094302;28;20626;-88
2021/04/06 00:07:18;;;;;;;3.60;2.07;;;0.90;99.90;;;;;;5092916;28;20233;-88
2021/04/06 00:09:49;;;;;;;1.97;1.77;;;0.90;99.90;;;;;;5094478;28;20638;-87
2021/04/06 00:12:16;;;;;;;3.63;1.60;;;0.90;99.90;;;;;;5094322;28;20164;-87
2021/04/06 00:14:44;;;;;;;4.03;1.80;;;0.90;99.90;;;;;;5093752;28;20171;-87
2021/04/06 00:17:12;;;;;;;2.43;1.40;;;1.00;99.90;;;;;;5094049;28;20183;-86
2021/04/06 00:19:41;;;;;;;2.40;1.53;;;1.00;99.90;;;;;;5093715;28;20182;-88
2021/04/06 00:22:10;;;;;;;1.97;1.27;;;1.00;99.90;;;;;;5094143;28;20246;-88
2021/04/06 00:24:44;;;;;;;1.50;1.40;;;1.00;99.90;;;;;;5093867;28;20177;-88
2021/04/06 00:27:17;;;;;;;1.60;1.50;;;0.90;99.90;;;;;;5094007;28;20697;-88
2021/04/06 00:29:47;;;;;;;3.80;1.90;;;1.00;99.90;;;;;;5093562;28;20166;-88
2021/04/06 00:32:16;;;;;;;2.30;1.50;;;1.00;99.90;;;;;;5076040;28;20183;-89
2021/04/06 00:34:42;;;;;;;3.57;1.30;;;0.90;99.90;;;;;;5092319;28;20178;-89
2021/04/06 00:37:15;;;;;;;4.07;1.97;;;0.90;99.90;;;;;;5093760;28;20192;-88
2021/04/06 00:39:41;;;;;;;1.73;1.30;;;1.00;99.90;;;;;;5093486;28;20176;-89
2021/04/06 00:42:18;;;;;;;3.93;1.57;;;1.00;99.90;;;;;;5093645;28;20179;-89
2021/04/06 00:44:48;;;;;;;2.07;1.57;;;0.90;99.90;;;;;;5093405;28;20642;-89
2021/04/06 00:47:22;;;;;;;2.53;1.70;;;0.90;99.90;;;;;;5075604;28;20657;-89
2021/04/06 00:49:48;;;;;;;1.40;1.30;;;1.00;99.90;;;;;;5093915;28;20178;-89
2021/04/06 00:52:14;;;;;;;2.70;1.70;;;0.90;99.90;;;;;;5093404;28;20178;-89
2021/04/06 00:54:40;;;;;;;3.67;1.50;;;0.90;99.90;;;;;;5074429;28;20190;-89
2021/04/06 00:57:08;;;;;;;2.63;1.90;;;0.90;99.90;;;;;;5093413;28;20243;-89
2021/04/06 00:59:35;;;;;;;2.10;1.47;;;0.90;99.90;;;;;;5093309;28;20213;-88
2021/04/06 01:02:04;;;;;;;3.33;2.10;;;0.90;99.90;;;;;;5075246;28;20650;-89
2021/04/06 01:04:34;;;;;;;2.83;1.80;;;0.90;99.90;;;;;;5093449;28;20262;-89
2021/04/06 01:07:05;;;;;;;2.57;1.93;;;0.90;99.90;;;;;;5084071;28;20589;-87
2021/04/06 01:09:48;;;;;;;2.57;2.00;;;0.90;99.90;;;;;;5092903;28;20171;-88
2021/04/06 01:12:25;;;;;;;3.37;2.20;;;0.90;99.90;;;;;;5093405;28;20173;-88
2021/04/06 01:14:52;;;;;;;4.03;1.73;;;0.90;99.90;;;;;;5092099;28;20182;-87
2021/04/06 01:17:23;;;;;;;3.03;2.03;;;0.90;99.90;;;;;;5093163;28;20174;-87
2021/04/06 01:19:49;;;;;;;2.60;1.80;;;0.90;99.90;;;;;;5092558;28;20180;-87
2021/04/06 01:22:17;;;;;;;3.87;2.03;;;0.90;99.90;;;;;;5092958;28;20214;-86
2021/04/06 01:24:44;;;;;;;2.60;1.97;;;1.00;99.90;;;;;;5093138;28;20193;-88
2021/04/06 01:27:13;;;;;;;5.63;2.00;;;1.00;99.90;;;;;;5091982;28;20274;-87
2021/04/06 01:29:47;;;;;;;1.83;1.43;;;1.00;99.90;;;;;;5093289;28;20177;-86
2021/04/06 01:32:13;;;;;;;3.77;2.00;;;0.90;99.90;;;;;;5091773;28;20213;-88
2021/04/06 01:34:40;;;;;;;3.30;1.70;;;0.90;99.90;;;;;;5091417;28;20185;-88
2021/04/06 01:37:06;;;;;;;4.83;1.97;;;1.00;99.90;;;;;;5091817;28;20214;-88
2021/04/06 01:39:33;;;;;;;2.87;2.20;;;1.00;99.90;;;;;;5091771;28;20209;-88
2021/04/06 01:42:03;;;;;;;1.67;1.50;;;1.00;99.90;;;;;;5092952;28;20182;-87
2021/04/06 01:44:30;;;;;;;3.37;1.47;;;0.90;99.90;;;;;;5092951;28;20569;-87
2021/04/06 01:46:56;;;;;;;3.97;1.70;;;0.90;99.90;;;;;;5092697;28;20268;-87
2021/04/06 01:49:24;;;;;;;1.83;1.67;;;0.90;99.90;;;;;;5091733;28;20185;-87
2021/04/06 01:51:57;;;;;;;3.80;2.20;;;0.90;99.90;;;;;;5092852;28;20222;-87
2021/04/06 01:54:23;;;;;;;3.60;1.90;;;0.90;99.90;;;;;;5093023;28;20175;-87
2021/04/06 01:56:53;;;;;;;4.27;1.80;;;1.00;99.90;;;;;;5092789;28;20181;-87
2021/04/06 01:59:29;;;;;;;3.93;1.70;;;0.90;99.90;;;;;;5092770;28;20216;-87
2021/04/06 02:01:57;;;;;;;4.70;1.73;;;0.90;99.90;;;;;;5091550;28;20182;-87
2021/04/06 02:04:24;;;;;;;2.53;1.90;;;0.90;99.90;;;;;;5092814;28;20277;-87
2021/04/06 02:06:55;;;;;;;4.40;2.07;;;0.90;99.90;;;;;;5090265;28;20237;-87
2021/04/06 02:09:21;;;;;;;8.03;1.40;;;0.90;99.90;;;;;;5091157;28;20537;-87
2021/04/06 02:11:48;;;;;;;1.60;1.33;;;0.90;99.90;;;;;;5092154;28;20183;-86
2021/04/06 02:14:15;;;;;;;2.60;1.70;;;0.90;99.90;;;;;;5092887;28;20624;-87
2021/04/06 02:16:47;;;;;;;4.07;2.17;;;0.90;99.90;;;;;;5092654;28;20214;-86
2021/04/06 02:19:25;;;;;;;4.73;1.87;;;0.80;99.90;;;;;;5092912;28;20209;-87
2021/04/06 02:22:11;;;;;;;6.13;2.17;;;0.90;99.90;;;;;;5091280;28;20179;-87
2021/04/06 02:24:45;;;;;;;4.47;2.33;;;0.80;99.90;;;;;;5092004;28;20182;-88
2021/04/06 02:27:21;;;;;;;3.47;1.90;;;0.80;99.90;;;;;;5092667;28;20232;-87
2021/04/06 02:29:47;;;;;;;5.73;2.47;;;0.80;99.90;;;;;;5091560;28;20214;-87
2021/04/06 02:32:16;;;;;;;5.13;2.53;;;0.80;99.90;;;;;;5095452;28;20265;-87
2021/04/06 02:34:44;;;;;;;5.20;2.43;;;0.80;99.90;;;;;;5095997;28;20169;-87
2021/04/06 02:37:32;;;;;;;4.93;2.10;;;0.80;99.90;;;;;;5095879;28;20314;-87
2021/04/06 02:40:09;;;;;;;2.63;2.07;;;0.80;99.90;;;;;;5095908;28;20647;-86
2021/04/06 02:42:38;;;;;;;3.00;2.23;;;0.90;99.90;;;;;;5094777;28;20510;-87
2021/04/06 02:45:17;;;;;;;3.50;2.23;;;0.90;99.90;;;;;;5095779;28;20165;-87
2021/04/06 02:47:47;;;;;;;6.60;2.57;;;1.00;99.90;;;;;;5095456;28;20734;-87
2021/04/06 02:50:16;;;;;;;2.23;1.80;;;1.00;99.90;;;;;;5095717;28;20188;-86
2021/04/06 02:52:42;;;;;;;2.97;2.00;;;0.90;99.90;;;;;;5094068;28;20645;-88
2021/04/06 02:55:11;;;;;;;4.00;2.43;;;1.00;99.90;;;;;;5095399;28;20184;-87
2021/04/06 02:57:44;;;;;;;4.93;2.20;;;0.90;99.90;;;;;;5095578;28;20186;-87
2021/04/06 03:00:11;;;;;;;3.87;2.80;;;0.80;99.90;;;;;;5095376;28;20177;-86
2021/04/06 03:02:40;;;;;;;7.53;2.60;;;0.90;99.90;;;;;;5095302;28;20180;-87
2021/04/06 03:05:07;;;;;;;5.13;2.30;;;0.90;99.90;;;;;;5095472;28;20534;-87
2021/04/06 03:07:43;;;;;;;3.63;2.60;;;0.90;99.90;;;;;;5095011;28;20243;-87
2021/04/06 03:10:20;;;;;;;4.17;2.83;;;1.00;99.90;;;;;;5095436;28;20181;-87
2021/04/06 03:12:50;;;;;;;4.73;3.27;;;0.90;99.90;;;;;;5094898;28;20170;-87
2021/04/06 03:15:26;;;;;;;2.87;2.30;;;0.90;99.90;;;;;;5076751;28;20181;-86
2021/04/06 03:17:55;;;;;;;4.37;2.90;;;0.90;99.90;;;;;;5094541;28;20257;-86
2021/04/06 03:20:25;;;;;;;5.40;2.97;;;0.90;99.90;;;;;;5095217;28;20666;-85
2021/04/06 03:22:53;;;;;;;5.00;2.60;;;0.90;99.90;;;;;;5094775;28;20201;-87
2021/04/06 03:25:20;;;;;;;7.20;3.07;;;0.90;99.90;;;;;;5076949;28;20201;-87
2021/04/06 03:27:47;;;;;;;4.77;3.20;;;0.80;99.90;;;;;;5094802;28;20243;-87
2021/04/06 03:30:31;;;;;;;7.43;3.27;;;0.90;99.90;;;;;;5095172;28;20175;-87
2021/04/06 03:33:00;;;;;;;4.30;2.87;;;0.90;99.90;;;;;;5076477;28;20256;-86
2021/04/06 03:35:26;;;;;;;6.80;2.90;;;0.90;99.90;;;;;;5094375;28;20267;-87
2021/04/06 03:37:53;;;;;;;5.43;2.93;;;0.90;99.90;;;;;;5076785;28;20188;-87
2021/04/06 03:40:18;;;;;;;7.23;3.67;;;0.90;99.90;;;;;;5094786;28;20276;-88
2021/04/06 03:42:44;;;;;;;7.70;3.60;;;0.90;99.90;;;;;;5094562;28;20216;-89
2021/04/06 03:45:11;;;;;;;7.77;3.63;;;0.90;99.90;;;;;;5076410;28;20654;-89
2021/04/06 03:47:57;;;;;;;9.50;5.27;;;0.90;99.90;;;;;;5094216;28;20219;-89
2021/04/06 03:50:34;;;;;;;6.10;3.80;;;0.90;99.90;;;;;;5094530;28;20224;-89
2021/04/06 03:53:05;;;;;;;6.83;4.03;;;0.80;99.90;;;;;;5094353;28;20248;-88
2021/04/06 03:55:32;;;;;;;8.63;4.63;;;0.80;99.90;;;;;;5093849;28;20185;-89
2021/04/06 03:58:29;;;;;;;10.67;5.03;;;0.80;99.90;;;;;;5094117;28;20627;-89
2021/04/06 04:00:55;;;;;;;6.00;4.17;;;0.80;99.90;;;;;;5094385;28;20231;-89
2021/04/06 04:03:20;;;;;;;5.83;4.17;;;0.90;99.90;;;;;;5056242;28;20188;-89
2021/04/06 04:05:49;;;;;;;8.83;5.67;;;0.90;99.90;;;;;;5070642;28;20663;-88
2021/04/06 04:08:15;;;;;;;8.17;4.83;;;0.90;99.90;;;;;;5071821;28;20226;-89
2021/04/06 04:10:40;;;;;;;11.10;5.23;;;0.80;99.90;;;;;;5054012;28;20189;-91
2021/04/06 04:13:06;;;;;;;6.97;5.17;;;0.80;99.90;;;;;;5053583;28;20264;-88
2021/04/06 04:15:32;;;;;;;10.43;5.10;;;0.80;99.90;;;;;;5053126;28;20187;-90
2021/04/06 04:17:57;;;;;;;7.90;4.40;;;0.90;99.90;;;;;;5052920;28;20250;-89
2021/04/06 04:20:24;;;;;;;10.47;5.27;;;0.90;99.90;;;;;;5071256;28;20213;-90
2021/04/06 04:22:51;;;;;;;8.73;5.10;;;0.90;99.90;;;;;;5071844;28;20191;-91
2021/04/06 04:25:18;;;;;;;10.60;5.60;;;0.80;99.90;;;;;;5071335;28;20194;-90
2021/04/06 04:27:44;;;;;;;7.90;4.73;;;0.90;99.90;;;;;;5051454;28;20311;-90
2021/04/06 04:30:12;;;;;;;7.37;4.20;;;0.90;99.90;;;;;;5053934;28;20258;-91
2021/04/06 04:32:39;;;;;;;10.00;6.87;;;0.90;99.90;;;;;;5054650;28;20193;-90
2021/04/06 04:35:05;;;;;;;8.83;5.47;;;0.80;99.90;;;;;;5071396;28;20187;-92
2021/04/06 04:37:31;;;;;;;9.07;5.97;;;0.90;99.90;;;;;;5071463;28;20189;-92
2021/04/06 04:39:57;;;;;;;7.67;5.03;;;0.90;99.90;;;;;;5053399;28;20289;-92
2021/04/06 04:42:23;;;;;;;10.53;4.87;;;0.90;99.90;;;;;;5054475;28;20190;-92
2021/04/06 04:44:48;;;;;;;9.80;4.33;;;0.90;99.90;;;;;;5070815;28;20712;-92
2021/04/06 04:47:14;;;;;;;7.87;4.70;;;0.90;99.90;;;;;;5035495;28;20235;-93
2021/04/06 04:49:40;;;;;;;7.60;3.83;;;0.80;99.90;;;;;;5036105;28;20194;-92
2021/04/06 04:52:05;;;;;;;14.43;4.73;;;0.80;99.90;;;;;;5069337;28;20187;-92
2021/04/06 04:54:32;;;;;;;6.67;4.60;;;0.80;99.90;;;;;;5069915;28;20552;-91
2021/04/06 04:56:58;;;;;;;7.40;4.27;;;0.70;99.90;;;;;;5054383;28;20660;-91
2021/04/06 04:59:24;;;;;;;9.57;5.43;;;0.80;99.90;;;;;;5051805;28;20195;-90
2021/04/06 05:01:50;;;;;;;9.00;5.60;;;1.10;99.90;;;;;;5072403;28;20209;-91
2021/04/06 05:04:15;;;;;;;8.23;4.70;;;1.00;99.90;;;;;;5070477;28;20968;-94
2021/04/06 05:06:41;;;;;;;7.53;4.70;;;0.90;99.90;;;;;;5071520;28;20242;-92
2021/04/06 05:09:07;;;;;;;6.73;4.20;;;0.90;99.90;;;;;;5051169;28;20209;-92
2021/04/06 05:11:34;;;;;;;5.83;3.97;;;0.90;99.90;;;;;;5068510;28;20259;-92
2021/04/06 05:14:00;;;;;;;7.93;4.57;;;0.90;99.90;;;;;;5070280;28;20194;-93
2021/04/06 05:16:26;;;;;;;9.13;4.50;;;0.90;99.90;;;;;;5052194;28;20190;-93
2021/04/06 05:18:51;;;;;;;6.87;4.03;;;0.90;99.90;;;;;;5051391;28;20179;-93
2021/04/06 05:21:17;;;;;;;8.93;4.73;;;0.90;99.90;;;;;;5070782;28;20205;-92
2021/04/06 05:23:43;;;;;;;11.17;4.57;;;0.90;99.90;;;;;;5039258;28;20190;-91
2021/04/06 05:26:08;;;;;;;10.17;5.33;;;0.90;99.90;;;;;;5051581;28;20197;-91
2021/04/06 05:28:35;;;;;;;7.30;4.93;;;0.90;99.90;;;;;;5053117;28;20222;-92
2021/04/06 05:31:00;;;;;;;9.30;4.67;;;0.90;99.90;;;;;;5070462;28;20176;-92
2021/04/06 05:33:26;;;;;;;9.43;4.53;;;1.00;99.90;;;;;;5071202;28;20191;-90
2021/04/06 05:35:52;;;;;;;8.77;5.50;;;1.00;99.90;;;;;;5073030;28;20193;-91
2021/04/06 05:38:19;;;;;;;10.10;4.40;;;1.00;99.90;;;;;;5071837;28;20175;-88
2021/04/06 05:40:45;;;;;;;8.20;4.67;;;1.00;99.90;;;;;;5072325;28;20714;-90
2021/04/06 05:43:15;;;;;;;8.03;4.33;;;1.10;99.90;;;;;;5055049;28;20190;-89
2021/04/06 05:45:45;;;;;;;6.30;4.00;;;1.10;99.90;;;;;;5072688;28;20214;-88
2021/04/06 05:48:15;;;;;;;7.70;4.63;;;1.20;99.90;;;;;;5072400;28;20217;-89
2021/04/06 05:50:50;;;;;;;7.97;4.73;;;1.20;99.90;;;;;;5072558;28;20171;-92
2021/04/06 05:53:16;;;;;;;9.93;4.37;;;1.10;99.90;;;;;;5072677;28;20224;-91
2021/04/06 05:55:42;;;;;;;8.13;4.43;;;1.10;99.90;;;;;;5038628;28;20516;-94
2021/04/06 05:58:08;;;;;;;6.60;4.50;;;1.20;99.90;;;;;;5072931;28;20186;-93
2021/04/06 06:00:33;;;;;;;7.57;4.20;;;1.20;99.90;;;;;;5072878;28;20233;-92
2021/04/06 06:03:00;;;;;;;5.07;2.93;;;1.20;99.90;;;;;;5072878;28;20666;-90
2021/04/06 06:05:26;;;;;;;7.50;4.73;;;1.10;99.90;;;;;;5055343;28;20179;-89
2021/04/06 06:07:52;;;;;;;7.47;4.33;;;1.10;99.90;;;;;;5075801;28;20223;-91
2021/04/06 06:10:25;;;;;;;6.83;5.10;;;1.20;99.90;;;;;;5060307;28;20529;-90
2021/04/06 06:12:52;;;;;;;6.67;4.47;;;1.20;99.90;;;;;;5076286;28;20182;-90
2021/04/06 06:15:18;;;;;;;9.43;5.10;;;1.30;99.90;;;;;;5077780;28;20205;-90
2021/04/06 06:18:01;;;;;;;9.63;4.87;;;1.30;99.90;;;;;;5082399;28;20830;-91
2021/04/06 06:20:27;;;;;;;11.50;4.07;;;1.20;99.90;;;;;;5076179;28;20744;-91
2021/04/06 06:22:53;;;;;;;6.53;3.80;;;1.10;99.90;;;;;;5062143;28;20195;-91
2021/04/06 06:25:19;;;;;;;13.97;5.43;;;1.10;99.90;;;;;;5078321;28;20659;-89
2021/04/06 06:27:47;;;;;;;7.60;4.23;;;1.20;99.90;;;;;;5062344;28;20251;-90
2021/04/06 06:30:38;;;;;;;7.27;4.23;;;1.40;99.90;;;;;;5057900;28;20179;-91
2021/04/06 06:33:17;;;;;;;9.93;4.33;;;1.40;99.90;;;;;;5059131;28;20186;-93
2021/04/06 06:35:48;;;;;;;6.67;4.17;;;1.50;99.90;;;;;;5084693;28;20701;-93
2021/04/06 06:38:25;;;;;;;8.83;4.40;;;1.50;99.90;;;;;;5083082;28;20252;-94
2021/04/06 06:40:53;;;;;;;5.53;3.67;;;1.50;99.90;;;;;;5070293;28;20171;-87
2021/04/06 06:43:21;;;;;;;7.80;4.60;;;1.60;99.90;;;;;;5064590;28;20179;-94
2021/04/06 06:45:49;;;;;;;6.90;4.17;;;1.60;99.90;;;;;;5065520;28;20206;-94
2021/04/06 06:48:25;;;;;;;7.60;4.07;;;1.60;99.90;;;;;;5084655;28;20212;-92
2021/04/06 06:50:51;;;;;;;7.23;3.97;;;1.70;99.90;;;;;;5077188;28;20188;-93
2021/04/06 06:53:35;;;;;;;8.93;4.13;;;1.90;99.90;;;;;;5088826;28;20269;-94
2021/04/06 06:56:03;;;;;;;7.87;4.03;;;1.70;99.90;;;;;;5068763;28;20546;-92
2021/04/06 06:58:34;;;;;;;8.67;4.70;;;1.80;99.90;;;;;;5069101;28;20256;-91
2021/04/06 07:01:00;;;;;;;7.27;5.03;;;2.00;99.90;;;;;;5091195;28;20186;-92
2021/04/06 07:03:27;;;;;;;5.50;4.07;;;2.10;99.90;;;;;;5075697;28;20182;-90
2021/04/06 07:05:53;;;;;;;10.70;5.23;;;2.10;99.90;;;;;;5045133;28;20566;-92
2021/04/06 07:08:36;;;;;;;6.67;3.90;;;2.10;99.90;;;;;;5072106;28;20227;-93
2021/04/06 07:11:02;;;;;;;7.60;3.97;;;2.10;99.90;;;;;;5076028;28;20182;-91
2021/04/06 07:13:33;;;;;;;5.80;3.00;;;2.10;99.90;;;;;;5096918;28;20261;-92
2021/04/06 07:15:59;;;;;;;7.30;3.83;;;2.10;99.90;;;;;;5062114;28;20189;-91
2021/04/06 07:18:27;;;;;;;6.60;3.53;;;2.20;99.90;;;;;;5075908;28;20182;-92
2021/04/06 07:21:06;;;;;;;5.63;3.07;;;2.20;99.90;;;;;;5082439;28;20186;-91
2021/04/06 07:23:53;;;;;;;5.60;2.73;;;2.20;99.90;;;;;;5076216;28;20171;-92
2021/04/06 07:26:20;;;;;;;8.80;3.97;;;2.20;99.90;;;;;;5075149;28;20264;-89
2021/04/06 07:28:46;;;;;;;8.93;5.37;;;2.30;99.90;;;;;;5076036;28;20262;-93
2021/04/06 07:31:15;;;;;;;12.37;5.50;;;2.30;99.90;;;;;;5076152;28;20196;-93
2021/04/06 07:33:42;;;;;;;13.87;4.33;;;2.50;99.90;;;;;;5084423;28;20215;-93
2021/04/06 07:36:10;;;;;;;4.63;3.10;;;2.70;99.90;;;;;;5079680;28;20587;-94
2021/04/06 07:38:40;;;;;;;5.63;2.63;;;2.60;99.90;;;;;;5074866;28;20698;-91
2021/04/06 07:41:07;;;;;;;10.40;4.87;;;2.40;99.90;;;;;;5076906;28;20179;-88
2021/04/06 07:43:34;;;;;;;13.23;4.97;;;2.30;99.90;;;;;;5083902;28;20179;-89
2021/04/06 07:46:00;;;;;;;5.73;3.47;;;2.30;99.90;;;;;;5081092;28;20282;-90
2021/04/06 07:48:55;;;;;;;6.27;2.80;;;2.30;99.90;;;;;;5074082;28;20294;-93
2021/04/06 07:51:24;;;;;;;6.87;3.77;;;2.40;99.90;;;;;;5052386;28;20218;-92
2021/04/06 07:54:03;;;;;;;7.70;3.07;;;2.40;99.90;;;;;;5073971;28;20580;-93
2021/04/06 07:56:49;;;;;;;5.70;3.10;;;2.50;99.90;;;;;;5054577;28;20206;-94
2021/04/06 07:59:21;;;;;;;3.93;2.57;;;2.50;99.90;;;;;;5054004;28;20651;-92
2021/04/06 08:02:06;;;;;;;6.23;2.87;;;2.60;99.90;;;;;;5072805;28;20201;-92
2021/04/06 08:04:38;;;;;;;6.43;3.27;;;2.60;99.90;;;;;;5054523;28;20382;-91
2021/04/06 08:07:35;;;;;;;6.20;3.90;;;2.60;99.90;;;;;;5073298;28;20233;-93
2021/04/06 08:10:09;;;;;;;10.23;3.50;;;2.60;99.90;;;;;;5073881;28;20167;-93
2021/04/06 08:12:36;;;;;;;8.13;3.50;;;2.60;99.90;;;;;;5074415;28;20655;-93
2021/04/06 08:15:04;;;;;;;12.73;4.23;;;2.50;99.90;;;;;;5079205;28;20186;-91
2021/04/06 08:17:29;;;;;;;10.23;4.70;;;2.60;99.90;;;;;;5077069;28;20183;-91
2021/04/06 08:20:09;;;;;;;15.67;4.27;;;2.70;99.90;;;;;;5056984;28;20520;-89
2021/04/06 08:22:44;;;;;;;6.73;3.10;;;2.70;99.90;;;;;;5057124;28;20180;-90
2021/04/06 08:25:20;;;;;;;11.27;3.50;;;2.80;99.90;;;;;;5074509;28;20213;-91
2021/04/06 08:27:54;;;;;;;6.50;4.33;;;2.90;99.90;;;;;;5075253;28;20206;-92
2021/04/06 08:30:22;;;;;;;6.80;2.90;;;2.80;99.90;;;;;;5060827;28;20199;-92
2021/04/06 08:33:00;;;;;;;7.27;3.77;;;2.70;99.90;;;;;;5058926;28;20195;-94
2021/04/06 08:35:49;;;;;;;5.07;3.03;;;2.70;99.90;;;;;;5071918;28;20189;-95
2021/04/06 08:38:24;;;;;;;11.07;3.53;;;2.70;99.90;;;;;;5043589;28;20190;-94
2021/04/06 08:40:58;;;;;;;5.80;3.40;;;2.60;99.90;;;;;;5064209;28;20200;-91
2021/04/06 08:43:33;;;;;;;10.87;4.13;;;2.70;99.90;;;;;;5080945;28;20265;-90
2021/04/06 08:46:08;;;;;;;6.50;3.30;;;2.80;99.90;;;;;;5078593;28;20199;-92
2021/04/06 08:48:44;;;;;;;9.13;3.50;;;2.80;99.90;;;;;;5077814;28;20215;-92
2021/04/06 08:51:20;;;;;;;9.87;3.93;;;2.80;99.90;;;;;;5079726;28;20265;-95
2021/04/06 08:53:52;;;;;;;4.00;3.00;;;2.80;99.90;;;;;;5084369;28;20179;-95
2021/04/06 08:56:21;;;;;;;5.27;3.10;;;2.70;99.90;;;;;;5079092;28;20179;-94
2021/04/06 08:58:46;;;;;;;8.40;4.20;;;2.50;99.90;;;;;;5085296;28;20186;-94
2021/04/06 09:01:12;;;;;;;10.70;4.50;;;2.60;99.90;;;;;;5061005;28;20183;-94
2021/04/06 09:03:38;;;;;;;8.57;3.80;;;2.70;99.90;;;;;;5071419;28;20187;-91
2021/04/06 09:06:12;;;;;;;2.93;2.47;;;2.70;99.90;;;;;;5079770;28;20800;-91
2021/04/06 09:08:55;;;;;;;6.80;3.20;;;2.80;99.90;;;;;;5065660;28;20221;-94
2021/04/06 09:11:24;;;;;;;9.67;3.13;;;2.90;99.90;;;;;;5085368;28;20639;-95
2021/04/06 09:13:53;;;;;;;6.40;3.43;;;3.00;99.90;;;;;;5068638;28;20187;-94
2021/04/06 09:16:27;;;;;;;8.70;4.20;;;3.00;99.90;;;;;;5062955;28;20227;-94
2021/04/06 09:19:09;;;;;;;10.63;3.80;;;3.00;99.90;;;;;;5048941;28;20196;-93
2021/04/06 09:21:37;;;;;;;5.90;3.97;;;3.10;99.90;;;;;;5069659;28;20236;-93
2021/04/06 09:24:06;;;;;;;4.27;3.13;;;3.20;99.90;;;;;;5062316;28;20194;-95
2021/04/06 09:26:32;;;;;;;6.63;3.80;;;3.20;99.90;;;;;;5315251;22;20245;-91
2021/04/06 09:31:53;;;;;;;7.67;3.43;;;5.50;99.90;;;;;;5277779;23;20239;-92
2021/04/06 09:34:22;;;;;;;9.00;3.90;;;2.90;99.90;;;;;;4956870;28;20217;-92
2021/04/06 09:36:59;;;;;;;8.70;3.80;;;3.00;99.90;;;;;;4941175;28;20191;-91
2021/04/06 09:39:26;;;;;;;6.27;3.63;;;3.00;99.90;;;;;;4949010;28;20194;-91
2021/04/06 09:41:53;;;;;;;5.23;3.23;;;3.00;99.90;;;;;;4959504;29;20184;-91
2021/04/06 09:44:22;;;;;;;5.80;3.50;;;3.00;99.90;;;;;;4952055;28;20256;-92
2021/04/06 09:46:50;;;;;;;11.67;5.67;;;2.90;99.90;;;;;;4961956;29;20195;-89
2021/04/06 09:49:17;;;;;;;9.03;4.80;;;2.90;99.90;;;;;;4956559;29;20195;-93
2021/04/06 09:51:48;;;;;;;5.60;3.50;;;2.90;99.90;;;;;;4958709;29;20189;-94
2021/04/06 09:54:30;;;;;;;7.17;3.97;;;2.90;99.90;;;;;;4952928;28;20194;-92
2021/04/06 09:56:58;;;;;;;5.67;3.73;;;2.90;99.90;;;;;;4953214;29;20211;-91
2021/04/06 09:59:24;;;;;;;8.37;4.03;;;2.90;99.90;;;;;;4951947;29;20261;-91
2021/04/06 10:01:51;;;;;;;10.93;4.50;;;3.00;99.90;;;;;;4949129;29;20182;-94
2021/04/06 10:04:32;;;;;;;8.57;4.03;;;3.10;99.90;;;;;;4950028;29;20184;-92
2021/04/06 10:07:13;;;;;;;5.90;4.37;;;3.10;99.90;;;;;;4945819;29;20244;-94
2021/04/06 10:10:01;;;;;;;7.67;4.30;;;3.20;99.90;;;;;;4944300;29;20188;-94
2021/04/06 10:12:29;;;;;;;13.83;5.60;;;3.10;99.90;;;;;;4943594;29;20357;-94
2021/04/06 10:14:55;;;;;;;8.67;4.17;;;3.20;99.90;;;;;;4942943;29;20179;-93
2021/04/06 10:17:37;;;;;;;7.00;3.70;;;3.30;99.90;;;;;;4943567;29;20227;-92
2021/04/06 10:20:07;;;;;;;8.23;4.20;;;3.40;99.90;;;;;;4942790;29;20193;-94
2021/04/06 10:23:08;;;;;;;6.97;3.40;;;3.20;99.90;;;;;;4981488;23;21197;-91
2021/04/06 10:25:37;;;;;;;13.03;4.07;;;3.30;99.90;;;;;;4907928;29;20184;-91
2021/04/06 10:28:06;;;;;;;8.03;4.50;;;3.30;99.90;;;;;;4946119;29;20356;-93
2021/04/06 10:31:00;;;;;;;8.80;4.00;;;3.40;99.90;;;;;;4963220;29;20278;-95
2021/04/06 10:33:29;;;;;;;8.47;4.23;;;3.60;99.90;;;;;;4961850;29;20185;-93
2021/04/06 10:35:58;;;;;;;8.93;4.37;;;3.50;99.90;;;;;;4960786;29;20184;-95
2021/04/06 10:38:25;;;;;;;6.10;3.73;;;3.50;99.90;;;;;;4946453;29;20728;-92
2021/04/06 10:41:10;;;;;;;12.27;4.10;;;3.40;99.90;;;;;;4952205;28;20171;-92
2021/04/06 10:43:40;;;;;;;7.90;4.30;;;3.50;99.90;;;;;;4958731;29;20173;-93
2021/04/06 10:46:12;;;;;;;9.33;4.47;;;3.50;99.90;;;;;;4955376;28;20199;-93
2021/04/06 10:48:40;;;;;;;6.80;4.37;;;3.40;99.90;;;;;;4962115;29;20200;-90
2021/04/06 10:51:08;;;;;;;10.97;6.20;;;3.40;99.90;;;;;;4963768;28;20163;-91
2021/04/06 10:53:46;;;;;;;11.90;5.60;;;3.30;99.90;;;;;;4962499;29;20203;-91
2021/04/06 10:56:15;;;;;;;11.37;6.27;;;3.50;99.90;;;;;;4972477;28;20751;-92
2021/04/06 10:59:08;;;;;;;13.20;6.80;;;3.50;99.90;;;;;;4958552;28;20191;-92
2021/04/06 11:01:38;;;;;;;9.17;5.87;;;3.60;99.90;;;;;;4950664;29;20274;-93
2021/04/06 11:04:25;;;;;;;9.50;3.87;;;3.60;99.90;;;;;;4954919;28;20185;-91
2021/04/06 11:07:02;;;;;;;20.13;12.27;;;3.80;99.90;;;;;;4954087;29;20184;-94
2021/04/06 11:09:38;;;;;;;13.87;7.33;;;3.90;99.90;;;;;;4952990;29;20187;-91
2021/04/06 11:12:06;;;;;;;10.70;4.43;;;3.70;99.90;;;;;;4959471;29;20202;-92
2021/04/06 11:14:33;;;;;;;7.13;4.00;;;3.60;99.90;;;;;;4951603;28;20271;-93
2021/04/06 11:17:04;;;;;;;9.33;4.13;;;3.70;99.90;;;;;;4949122;29;20188;-93
2021/04/06 11:19:33;;;;;;;10.17;4.23;;;3.70;99.90;;;;;;4951753;29;20191;-95
2021/04/06 11:22:08;;;;;;;7.70;3.87;;;3.60;99.90;;;;;;4949090;29;20556;-89
2021/04/06 11:24:35;;;;;;;14.80;4.20;;;3.60;99.90;;;;;;4950412;29;20238;-92
2021/04/06 11:27:02;;;;;;;9.63;5.17;;;3.70;99.90;;;;;;4939902;29;20271;-94
2021/04/06 11:29:31;;;;;;;13.43;4.17;;;3.60;99.90;;;;;;4958329;28;20196;-93
2021/04/06 11:39:47;;;;;;;11.20;4.10;;;3.50;99.90;;;;;;5155852;23;20256;-92
2021/04/06 11:42:14;;;;;;;9.53;4.23;;;3.40;99.90;;;;;;4945629;29;20180;-94
2021/04/06 11:44:40;;;;;;;15.93;6.53;;;3.30;99.90;;;;;;4948239;29;20200;-93
2021/04/06 11:47:07;;;;;;;17.33;5.53;;;3.40;99.90;;;;;;4945258;29;20230;-91
2021/04/06 11:49:33;;;;;;;9.40;5.30;;;3.40;99.90;;;;;;4944980;29;20220;-94
2021/04/06 11:52:00;;;;;;;6.20;4.43;;;3.30;99.90;;;;;;4938594;29;20216;-95
2021/04/06 11:54:26;;;;;;;6.10;3.83;;;3.30;99.90;;;;;;4935703;29;20192;-94
2021/04/06 11:56:52;;;;;;;7.93;4.23;;;3.40;99.90;;;;;;4950592;29;20192;-93
2021/04/06 11:59:18;;;;;;;18.00;8.17;;;3.30;99.90;;;;;;4929221;29;20204;-94
2021/04/06 12:01:45;;;;;;;13.10;5.67;;;3.40;99.90;;;;;;4945929;29;20275;-94
2021/04/06 12:04:12;;;;;;;7.90;4.20;;;3.50;99.90;;;;;;4939542;29;20194;-95
2021/04/06 12:06:38;;;;;;;7.77;4.27;;;3.60;99.90;;;;;;4945486;29;20184;-94
2021/04/06 12:09:06;;;;;;;8.90;4.40;;;3.60;99.90;;;;;;4946924;29;20241;-96
2021/04/06 12:11:32;;;;;;;10.73;5.13;;;3.70;99.90;;;;;;4912848;29;20188;-92
2021/04/06 12:13:58;;;;;;;9.57;4.73;;;3.60;99.90;;;;;;4947804;29;20182;-93
2021/04/06 12:16:23;;;;;;;5.87;4.07;;;3.60;99.90;;;;;;4926464;29;20561;-93
2021/04/06 12:18:49;;;;;;;7.60;4.33;;;3.60;99.90;;;;;;4945394;29;20548;-91
2021/04/06 12:21:15;;;;;;;6.23;3.70;;;3.50;99.90;;;;;;4946427;29;20191;-94
2021/04/06 12:23:41;;;;;;;8.80;3.70;;;3.60;99.90;;;;;;4949902;29;20221;-93
2021/04/06 12:26:07;;;;;;;9.70;3.70;;;3.60;99.90;;;;;;4943711;29;20239;-93
2021/04/06 12:28:34;;;;;;;9.30;3.37;;;3.60;99.90;;;;;;4928113;29;20234;-92
2021/04/06 12:31:00;;;;;;;9.17;3.27;;;3.60;99.90;;;;;;4945329;29;20676;-92
2021/04/06 12:33:26;;;;;;;12.13;4.73;;;3.60;99.60;;;;;;4927822;29;20197;-92
2021/04/06 12:35:52;;;;;;;11.67;4.23;;;3.50;99.90;;;;;;4943057;29;20204;-91
2021/04/06 12:38:17;;;;;;;8.53;4.40;;;3.60;99.90;;;;;;4914809;29;20195;-87
2021/04/06 12:40:43;;;;;;;11.37;5.73;;;3.50;99.90;;;;;;4939238;29;20245;-91
2021/04/06 12:43:09;;;;;;;12.03;6.73;;;3.70;99.90;;;;;;4944032;29;20197;-92
2021/04/06 12:45:35;;;;;;;18.60;5.70;;;3.80;99.90;;;;;;4944819;29;20192;-93
2021/04/06 12:48:02;;;;;;;11.63;5.67;;;3.80;99.90;;;;;;4928785;29;20308;-92
2021/04/06 12:50:28;;;;;;;12.73;5.50;;;4.00;99.90;;;;;;4941082;29;20226;-94
2021/04/06 12:52:54;;;;;;;16.23;5.90;;;3.80;99.90;;;;;;4944622;29;20185;-92
2021/04/06 12:55:20;;;;;;;14.17;5.43;;;3.80;99.90;;;;;;4951644;29;20717;-87
2021/04/06 12:57:47;;;;;;;13.57;6.87;;;3.70;99.90;;;;;;4953744;29;20800;-92
2021/04/06 13:00:13;;;;;;;14.80;6.80;;;3.60;99.90;;;;;;4953839;28;20190;-92
2021/04/06 13:02:42;;;;;;;14.63;6.80;;;3.50;99.90;;;;;;5559776;23;20238;-92
2021/04/06 13:05:14;;;;;;;16.03;8.17;;;3.30;99.90;;;;;;4973011;29;20231;-93
2021/04/06 13:07:40;;;;;;;15.60;6.57;;;5.40;99.90;;;;;;4971836;23;20245;-94
2021/04/06 13:10:07;;;;;;;19.17;6.00;;;3.30;99.90;;;;;;4948841;29;20207;-93
2021/04/06 13:12:33;;;;;;;13.77;6.70;;;3.20;99.90;;;;;;4952175;29;20184;-94
2021/04/06 13:14:58;;;;;;;12.30;5.17;;;3.20;99.90;;;;;;4950748;29;20196;-94
2021/04/06 13:17:24;;;;;;;12.27;5.27;;;3.00;99.90;;;;;;4952049;29;20195;-92
2021/04/06 13:19:50;;;;;;;14.60;5.60;;;3.10;99.90;;;;;;5006614;23;20874;-91
2021/04/06 13:22:15;;;;;;;18.70;6.33;;;3.10;99.90;;;;;;4966569;23;20249;-93